sensor_id;sensor_type;location;lat;lon;timestamp;temperature;humidity
3816;DHT22;1923;48.154;11.536;2023-02-18T10:28:59;16.20;99.90
3816;DHT22;1923;48.154;11.536;2023-02-18T10:31:32;19.40;99.90
3816;DHT22;1923;48.154;11.536;2023-02-18T10:34:06;19.90;99.90
3816;DHT22;1923;48.154;11.536;2023-02-18T10:36:44;20.10;99.90
3816;DHT22;1923;48.154;11.536;2023-02-18T10:39:37;20.20;99.90
3816;DHT22;1923;48.154;11.536;2023-02-18T10:42:18;20.00;99.90
3816;DHT22;1923;48.154;11.536;2023-02-18T10:44:57;19.90;99.90
3816;DHT22;1923;48.154;11.536;2023-02-18T10:47:35;20.00;99.90
3816;DHT22;1923;48.154;11.536;2023-02-18T10:50:10;19.90;99.90
3816;DHT22;1923;48.154;11.536;2023-02-18T10:52:41;19.90;99.90
3816;DHT22;1923;48.154;11.536;2023-02-18T10:55:11;20.10;99.90
3816;DHT22;1923;48.154;11.536;2023-02-18T10:57:45;20.50;99.90
3816;DHT22;1923;48.154;11.536;2023-02-18T11:00:18;20.60;99.90
3816;DHT22;1923;48.154;11.536;2023-02-18T11:03:02;20.80;99.90
3816;DHT22;1923;48.154;11.536;2023-02-18T11:05:37;21.00;99.90
3816;DHT22;1923;48.154;11.536;2023-02-18T11:08:07;21.40;99.90
3816;DHT22;1923;48.154;11.536;2023-02-18T11:10:39;21.90;99.80
3816;DHT22;1923;48.154;11.536;2023-02-18T11:13:09;22.20;99.30
3816;DHT22;1923;48.154;11.536;2023-02-18T11:15:57;22.30;98.80
3816;DHT22;1923;48.154;11.536;2023-02-18T11:18:39;22.40;98.30
3816;DHT22;1923;48.154;11.536;2023-02-18T11:21:20;22.40;98.20
3816;DHT22;1923;48.154;11.536;2023-02-18T11:23:50;22.50;97.80
3816;DHT22;1923;48.154;11.536;2023-02-18T11:26:24;22.30;97.90
3816;DHT22;1923;48.154;11.536;2023-02-18T11:28:58;22.70;97.80
3816;DHT22;1923;48.154;11.536;2023-02-18T11:31:38;22.80;97.30
3816;DHT22;1923;48.154;11.536;2023-02-18T11:34:14;22.70;97.00
3816;DHT22;1923;48.154;11.536;2023-02-18T11:36:43;22.30;97.10
3816;DHT22;1923;48.154;11.536;2023-02-18T11:39:18;21.50;97.60
3816;DHT22;1923;48.154;11.536;2023-02-18T11:41:53;20.80;98.30
3816;DHT22;1923;48.154;11.536;2023-02-18T11:44:26;20.40;98.90
3816;DHT22;1923;48.154;11.536;2023-02-18T11:46:58;20.00;99.10
3816;DHT22;1923;48.154;11.536;2023-02-18T11:49:27;19.70;99.60
3816;DHT22;1923;48.154;11.536;2023-02-18T11:52:04;19.40;99.80
3816;DHT22;1923;48.154;11.536;2023-02-18T11:54:37;19.00;99.90
3816;DHT22;1923;48.154;11.536;2023-02-18T11:57:09;18.70;99.90
3816;DHT22;1923;48.154;11.536;2023-02-18T11:59:39;18.50;99.90
3816;DHT22;1923;48.154;11.536;2023-02-18T12:02:27;18.10;99.90
3816;DHT22;1923;48.154;11.536;2023-02-18T12:05:00;18.00;99.90
3816;DHT22;1923;48.154;11.536;2023-02-18T12:07:35;18.00;99.90
3816;DHT22;1923;48.154;11.536;2023-02-18T12:10:12;17.90;99.90
3816;DHT22;1923;48.154;11.536;2023-02-18T12:12:46;17.90;99.90
3816;DHT22;1923;48.154;11.536;2023-02-18T12:15:17;17.80;99.90
3816;DHT22;1923;48.154;11.536;2023-02-18T12:18:01;17.70;99.90
3816;DHT22;1923;48.154;11.536;2023-02-18T12:20:44;17.70;99.90
3816;DHT22;1923;48.154;11.536;2023-02-18T12:23:20;17.70;99.90
3816;DHT22;1923;48.154;11.536;2023-02-18T12:25:56;17.60;99.90
3816;DHT22;1923;48.154;11.536;2023-02-18T12:28:38;17.70;99.90
3816;DHT22;1923;48.154;11.536;2023-02-18T12:31:26;17.70;99.90
3816;DHT22;1923;48.154;11.536;2023-02-18T12:34:28;17.70;99.90
3816;DHT22;1923;48.154;11.536;2023-02-18T12:37:10;17.60;99.90
3816;DHT22;1923;48.154;11.536;2023-02-18T12:39:58;17.50;99.90
3816;DHT22;1923;48.154;11.536;2023-02-18T12:42:39;17.40;99.90
3816;DHT22;1923;48.154;11.536;2023-02-18T12:45:27;17.30;99.90
3816;DHT22;1923;48.154;11.536;2023-02-18T12:51:26;17.20;99.90
3816;DHT22;1923;48.154;11.536;2023-02-18T12:54:24;17.10;99.90
3816;DHT22;1923;48.154;11.536;2023-02-18T12:57:11;17.10;99.90
3816;DHT22;1923;48.154;11.536;2023-02-18T12:59:58;17.10;99.90
3816;DHT22;1923;48.154;11.536;2023-02-18T13:02:43;16.90;99.90
3816;DHT22;1923;48.154;11.536;2023-02-18T13:05:25;17.00;99.90
3816;DHT22;1923;48.154;11.536;2023-02-18T13:08:14;17.20;99.90
3816;DHT22;1923;48.154;11.536;2023-02-18T13:10:52;17.20;99.90
3816;DHT22;1923;48.154;11.536;2023-02-18T13:13:24;17.40;99.90
3816;DHT22;1923;48.154;11.536;2023-02-18T13:15:54;17.50;99.90
3816;DHT22;1923;48.154;11.536;2023-02-18T13:18:27;17.50;99.90
3816;DHT22;1923;48.154;11.536;2023-02-18T13:20:59;17.30;99.90
3816;DHT22;1923;48.154;11.536;2023-02-18T13:23:34;17.20;99.90
3816;DHT22;1923;48.154;11.536;2023-02-18T13:26:06;17.30;99.90
3816;DHT22;1923;48.154;11.536;2023-02-18T13:28:40;17.10;99.90
3816;DHT22;1923;48.154;11.536;2023-02-18T13:31:21;17.00;99.90
3816;DHT22;1923;48.154;11.536;2023-02-18T13:33:57;16.80;99.90
3816;DHT22;1923;48.154;11.536;2023-02-18T13:36:40;16.60;99.90
3816;DHT22;1923;48.154;11.536;2023-02-18T13:39:15;16.40;99.90
3816;DHT22;1923;48.154;11.536;2023-02-18T13:41:47;16.40;99.90
3816;DHT22;1923;48.154;11.536;2023-02-18T13:47:36;16.70;99.90
3816;DHT22;1923;48.154;11.536;2023-02-18T13:50:25;16.60;99.90
3816;DHT22;1923;48.154;11.536;2023-02-18T13:53:11;16.60;99.90
3816;DHT22;1923;48.154;11.536;2023-02-18T13:55:47;16.60;99.90
3816;DHT22;1923;48.154;11.536;2023-02-18T13:58:20;16.40;99.90
3816;DHT22;1923;48.154;11.536;2023-02-18T14:00:53;16.30;99.90
3816;DHT22;1923;48.154;11.536;2023-02-18T14:03:35;16.10;99.90
3816;DHT22;1923;48.154;11.536;2023-02-18T14:06:14;16.10;99.90
3816;DHT22;1923;48.154;11.536;2023-02-18T14:08:43;16.20;99.90
3816;DHT22;1923;48.154;11.536;2023-02-18T14:11:34;16.30;99.90
3816;DHT22;1923;48.154;11.536;2023-02-18T14:14:35;16.10;99.90
3816;DHT22;1923;48.154;11.536;2023-02-18T14:17:36;16.10;99.90
3816;DHT22;1923;48.154;11.536;2023-02-18T14:20:28;16.10;99.90
3816;DHT22;1923;48.154;11.536;2023-02-18T14:22:58;16.00;99.90
3816;DHT22;1923;48.154;11.536;2023-02-18T14:25:48;16.00;99.90
3816;DHT22;1923;48.154;11.536;2023-02-18T14:28:42;15.90;99.90
3816;DHT22;1923;48.154;11.536;2023-02-18T14:31:25;16.00;99.90
3816;DHT22;1923;48.154;11.536;2023-02-18T14:37:11;16.00;99.90
3816;DHT22;1923;48.154;11.536;2023-02-18T14:39:51;15.80;99.90
3816;DHT22;1923;48.154;11.536;2023-02-18T14:42:28;15.70;99.90
3816;DHT22;1923;48.154;11.536;2023-02-18T14:45:11;15.60;99.90
3816;DHT22;1923;48.154;11.536;2023-02-18T14:48:02;15.50;99.90
3816;DHT22;1923;48.154;11.536;2023-02-18T14:50:36;15.50;99.90
3816;DHT22;1923;48.154;11.536;2023-02-18T14:53:06;15.40;99.90
3816;DHT22;1923;48.154;11.536;2023-02-18T14:55:41;15.30;99.90
3816;DHT22;1923;48.154;11.536;2023-02-18T14:58:23;15.30;99.90
3816;DHT22;1923;48.154;11.536;2023-02-18T15:00:54;15.30;99.90
3816;DHT22;1923;48.154;11.536;2023-02-18T15:03:22;15.20;99.90
3816;DHT22;1923;48.154;11.536;2023-02-18T15:05:51;15.20;99.90
3816;DHT22;1923;48.154;11.536;2023-02-18T15:08:20;15.20;99.90
3816;DHT22;1923;48.154;11.536;2023-02-18T15:10:51;15.20;99.90
3816;DHT22;1923;48.154;11.536;2023-02-18T15:13:22;15.20;99.90
3816;DHT22;1923;48.154;11.536;2023-02-18T15:15:56;15.10;99.90
3816;DHT22;1923;48.154;11.536;2023-02-18T15:18:29;15.10;99.90
3816;DHT22;1923;48.154;11.536;2023-02-18T15:21:00;15.00;99.90
3816;DHT22;1923;48.154;11.536;2023-02-18T15:23:29;15.00;99.90
3816;DHT22;1923;48.154;11.536;2023-02-18T15:25:57;14.90;99.90
3816;DHT22;1923;48.154;11.536;2023-02-18T15:28:27;14.90;99.90
3816;DHT22;1923;48.154;11.536;2023-02-18T15:30:57;14.90;99.90
3816;DHT22;1923;48.154;11.536;2023-02-18T15:33:26;14.80;99.90
3816;DHT22;1923;48.154;11.536;2023-02-18T15:36:00;14.90;99.90
3816;DHT22;1923;48.154;11.536;2023-02-18T15:38:28;14.90;99.90
3816;DHT22;1923;48.154;11.536;2023-02-18T15:40:56;14.90;99.90
3816;DHT22;1923;48.154;11.536;2023-02-18T15:43:26;14.90;99.90
3816;DHT22;1923;48.154;11.536;2023-02-18T15:45:55;14.90;99.90
3816;DHT22;1923;48.154;11.536;2023-02-18T15:48:30;14.80;99.90
3816;DHT22;1923;48.154;11.536;2023-02-18T15:51:03;14.80;99.90
3816;DHT22;1923;48.154;11.536;2023-02-18T15:53:44;14.70;99.90
3816;DHT22;1923;48.154;11.536;2023-02-18T15:56:17;14.70;99.90
3816;DHT22;1923;48.154;11.536;2023-02-18T15:58:47;14.70;99.90
3816;DHT22;1923;48.154;11.536;2023-02-18T16:01:25;14.60;99.90
3816;DHT22;1923;48.154;11.536;2023-02-18T16:03:55;14.50;99.90
3816;DHT22;1923;48.154;11.536;2023-02-18T16:06:26;14.50;99.90
3816;DHT22;1923;48.154;11.536;2023-02-18T16:08:56;14.40;99.90
3816;DHT22;1923;48.154;11.536;2023-02-18T16:11:28;14.30;99.90
3816;DHT22;1923;48.154;11.536;2023-02-18T16:13:57;14.30;99.90
3816;DHT22;1923;48.154;11.536;2023-02-18T16:16:28;14.20;99.90
3816;DHT22;1923;48.154;11.536;2023-02-18T16:18:58;14.20;99.90
3816;DHT22;1923;48.154;11.536;2023-02-18T16:21:31;14.20;99.90
3816;DHT22;1923;48.154;11.536;2023-02-18T16:24:01;14.10;99.90
3816;DHT22;1923;48.154;11.536;2023-02-18T16:26:32;14.10;99.90
3816;DHT22;1923;48.154;11.536;2023-02-18T16:29:11;14.00;99.90
3816;DHT22;1923;48.154;11.536;2023-02-18T16:31:40;14.00;99.90
3816;DHT22;1923;48.154;11.536;2023-02-18T16:34:09;13.90;99.90
3816;DHT22;1923;48.154;11.536;2023-02-18T16:36:38;14.00;99.90
3816;DHT22;1923;48.154;11.536;2023-02-18T16:39:27;14.00;99.90
3816;DHT22;1923;48.154;11.536;2023-02-18T16:41:56;13.90;99.90
3816;DHT22;1923;48.154;11.536;2023-02-18T16:44:24;13.90;99.90
3816;DHT22;1923;48.154;11.536;2023-02-18T16:46:52;13.80;99.90
3816;DHT22;1923;48.154;11.536;2023-02-18T16:49:21;13.80;99.90
3816;DHT22;1923;48.154;11.536;2023-02-18T16:51:49;13.80;99.90
3816;DHT22;1923;48.154;11.536;2023-02-18T16:54:18;13.70;99.90
3816;DHT22;1923;48.154;11.536;2023-02-18T16:56:46;13.70;99.90
3816;DHT22;1923;48.154;11.536;2023-02-18T16:59:13;13.70;99.90
3816;DHT22;1923;48.154;11.536;2023-02-18T17:01:43;13.70;99.90
3816;DHT22;1923;48.154;11.536;2023-02-18T17:04:14;13.60;99.90
3816;DHT22;1923;48.154;11.536;2023-02-18T17:06:44;13.70;99.90
3816;DHT22;1923;48.154;11.536;2023-02-18T17:09:13;13.70;99.90
3816;DHT22;1923;48.154;11.536;2023-02-18T17:11:43;13.80;99.90
3816;DHT22;1923;48.154;11.536;2023-02-18T17:14:13;14.00;99.90
3816;DHT22;1923;48.154;11.536;2023-02-18T17:16:43;13.90;99.90
3816;DHT22;1923;48.154;11.536;2023-02-18T17:19:12;13.90;99.90
3816;DHT22;1923;48.154;11.536;2023-02-18T17:21:40;13.80;99.90
3816;DHT22;1923;48.154;11.536;2023-02-18T17:24:12;13.90;99.90
3816;DHT22;1923;48.154;11.536;2023-02-18T17:26:40;13.90;99.90
3816;DHT22;1923;48.154;11.536;2023-02-18T17:29:09;13.90;99.90
3816;DHT22;1923;48.154;11.536;2023-02-18T17:31:39;13.80;99.90
3816;DHT22;1923;48.154;11.536;2023-02-18T17:34:13;13.70;99.90
3816;DHT22;1923;48.154;11.536;2023-02-18T17:36:42;13.60;99.90
3816;DHT22;1923;48.154;11.536;2023-02-18T17:39:14;13.60;99.90
3816;DHT22;1923;48.154;11.536;2023-02-18T17:41:43;13.50;99.90
3816;DHT22;1923;48.154;11.536;2023-02-18T17:44:13;13.50;99.90
3816;DHT22;1923;48.154;11.536;2023-02-18T17:46:42;13.50;99.90
3816;DHT22;1923;48.154;11.536;2023-02-18T17:49:11;13.50;99.90
3816;DHT22;1923;48.154;11.536;2023-02-18T17:51:39;13.50;99.90
3816;DHT22;1923;48.154;11.536;2023-02-18T17:54:11;13.50;99.90
3816;DHT22;1923;48.154;11.536;2023-02-18T17:56:41;13.60;99.90
3816;DHT22;1923;48.154;11.536;2023-02-18T17:59:09;13.60;99.90
3816;DHT22;1923;48.154;11.536;2023-02-18T18:01:38;13.60;99.90
3816;DHT22;1923;48.154;11.536;2023-02-18T18:04:10;13.60;99.90
3816;DHT22;1923;48.154;11.536;2023-02-18T18:06:40;13.60;99.90
3816;DHT22;1923;48.154;11.536;2023-02-18T18:09:08;13.60;99.90
3816;DHT22;1923;48.154;11.536;2023-02-18T18:11:37;13.50;99.90
3816;DHT22;1923;48.154;11.536;2023-02-18T18:14:08;13.50;99.90
3816;DHT22;1923;48.154;11.536;2023-02-18T18:16:37;13.50;99.90
3816;DHT22;1923;48.154;11.536;2023-02-18T18:19:05;13.40;99.90
3816;DHT22;1923;48.154;11.536;2023-02-18T18:21:34;13.40;99.90
3816;DHT22;1923;48.154;11.536;2023-02-18T18:24:03;13.40;99.90
3816;DHT22;1923;48.154;11.536;2023-02-18T18:26:31;13.30;99.90
3816;DHT22;1923;48.154;11.536;2023-02-18T18:28:59;13.30;99.90
3816;DHT22;1923;48.154;11.536;2023-02-18T18:31:28;13.20;99.90
3816;DHT22;1923;48.154;11.536;2023-02-18T18:33:58;13.20;99.90
3816;DHT22;1923;48.154;11.536;2023-02-18T18:36:26;13.20;99.90
3816;DHT22;1923;48.154;11.536;2023-02-18T18:38:54;13.20;99.90
3816;DHT22;1923;48.154;11.536;2023-02-18T18:41:22;13.20;99.90
3816;DHT22;1923;48.154;11.536;2023-02-18T18:43:50;13.20;99.90
3816;DHT22;1923;48.154;11.536;2023-02-18T18:46:18;13.20;99.90
3816;DHT22;1923;48.154;11.536;2023-02-18T18:48:47;13.20;99.90
3816;DHT22;1923;48.154;11.536;2023-02-18T18:51:17;13.10;99.90
3816;DHT22;1923;48.154;11.536;2023-02-18T18:53:47;13.10;99.90
3816;DHT22;1923;48.154;11.536;2023-02-18T18:56:15;13.10;99.90
3816;DHT22;1923;48.154;11.536;2023-02-18T18:58:43;13.20;99.90
3816;DHT22;1923;48.154;11.536;2023-02-18T19:01:13;13.30;99.90
3816;DHT22;1923;48.154;11.536;2023-02-18T19:03:43;13.30;99.90
3816;DHT22;1923;48.154;11.536;2023-02-18T19:06:14;13.50;99.90
3816;DHT22;1923;48.154;11.536;2023-02-18T19:08:43;13.50;99.90
3816;DHT22;1923;48.154;11.536;2023-02-18T19:11:14;13.50;99.90
3816;DHT22;1923;48.154;11.536;2023-02-18T19:13:43;13.50;99.90
3816;DHT22;1923;48.154;11.536;2023-02-18T19:16:16;13.40;99.90
3816;DHT22;1923;48.154;11.536;2023-02-18T19:18:45;13.40;99.90
3816;DHT22;1923;48.154;11.536;2023-02-18T19:21:14;13.30;99.90
3816;DHT22;1923;48.154;11.536;2023-02-18T19:23:43;13.10;99.90
3816;DHT22;1923;48.154;11.536;2023-02-18T19:26:14;13.20;99.90
3816;DHT22;1923;48.154;11.536;2023-02-18T19:28:45;13.30;99.90
3816;DHT22;1923;48.154;11.536;2023-02-18T19:31:13;13.20;99.90
3816;DHT22;1923;48.154;11.536;2023-02-18T19:33:42;13.20;99.90
3816;DHT22;1923;48.154;11.536;2023-02-18T19:36:14;13.10;99.90
3816;DHT22;1923;48.154;11.536;2023-02-18T19:38:42;13.10;99.90
3816;DHT22;1923;48.154;11.536;2023-02-18T19:41:13;13.10;99.90
3816;DHT22;1923;48.154;11.536;2023-02-18T19:43:43;13.10;99.90
3816;DHT22;1923;48.154;11.536;2023-02-18T19:46:13;13.10;99.90
3816;DHT22;1923;48.154;11.536;2023-02-18T19:48:42;13.10;99.90
3816;DHT22;1923;48.154;11.536;2023-02-18T19:51:10;13.10;99.90
3816;DHT22;1923;48.154;11.536;2023-02-18T19:53:41;13.10;99.90
3816;DHT22;1923;48.154;11.536;2023-02-18T19:56:09;13.20;99.90
3816;DHT22;1923;48.154;11.536;2023-02-18T19:58:37;13.10;99.90
3816;DHT22;1923;48.154;11.536;2023-02-18T20:01:10;13.10;99.90
3816;DHT22;1923;48.154;11.536;2023-02-18T20:03:38;13.20;99.90
3816;DHT22;1923;48.154;11.536;2023-02-18T20:06:13;13.20;99.90
3816;DHT22;1923;48.154;11.536;2023-02-18T20:08:42;13.20;99.90
3816;DHT22;1923;48.154;11.536;2023-02-18T20:11:10;13.20;99.90
3816;DHT22;1923;48.154;11.536;2023-02-18T20:13:38;13.10;99.90
3816;DHT22;1923;48.154;11.536;2023-02-18T20:16:08;13.20;99.90
3816;DHT22;1923;48.154;11.536;2023-02-18T20:18:37;13.10;99.90
3816;DHT22;1923;48.154;11.536;2023-02-18T20:21:05;13.20;99.90
3816;DHT22;1923;48.154;11.536;2023-02-18T20:23:33;13.30;99.90
3816;DHT22;1923;48.154;11.536;2023-02-18T20:26:06;13.30;99.90
3816;DHT22;1923;48.154;11.536;2023-02-18T20:28:35;13.30;99.90
3816;DHT22;1923;48.154;11.536;2023-02-18T20:31:04;13.30;99.90
3816;DHT22;1923;48.154;11.536;2023-02-18T20:33:33;13.20;99.90
3816;DHT22;1923;48.154;11.536;2023-02-18T20:36:01;13.30;99.90
3816;DHT22;1923;48.154;11.536;2023-02-18T20:38:30;13.20;99.90
3816;DHT22;1923;48.154;11.536;2023-02-18T20:41:02;13.20;99.90
3816;DHT22;1923;48.154;11.536;2023-02-18T20:43:32;13.20;99.90
3816;DHT22;1923;48.154;11.536;2023-02-18T20:46:01;13.10;99.90
3816;DHT22;1923;48.154;11.536;2023-02-18T20:48:29;13.10;99.90
3816;DHT22;1923;48.154;11.536;2023-02-18T20:51:02;13.10;99.90
3816;DHT22;1923;48.154;11.536;2023-02-18T20:53:31;13.10;99.90
3816;DHT22;1923;48.154;11.536;2023-02-18T20:55:59;13.10;99.90
3816;DHT22;1923;48.154;11.536;2023-02-18T20:58:27;13.10;99.90
3816;DHT22;1923;48.154;11.536;2023-02-18T21:00:58;13.10;99.90
3816;DHT22;1923;48.154;11.536;2023-02-18T21:03:27;13.10;99.90
3816;DHT22;1923;48.154;11.536;2023-02-18T21:05:55;13.20;99.90
3816;DHT22;1923;48.154;11.536;2023-02-18T21:08:24;13.10;99.90
3816;DHT22;1923;48.154;11.536;2023-02-18T21:10:54;13.10;99.90
3816;DHT22;1923;48.154;11.536;2023-02-18T21:13:23;13.20;99.90
3816;DHT22;1923;48.154;11.536;2023-02-18T21:15:52;13.10;99.90
3816;DHT22;1923;48.154;11.536;2023-02-18T21:18:21;13.20;99.90
3816;DHT22;1923;48.154;11.536;2023-02-18T21:20:49;13.30;99.90
3816;DHT22;1923;48.154;11.536;2023-02-18T21:23:18;13.30;99.90
3816;DHT22;1923;48.154;11.536;2023-02-18T21:25:46;13.30;99.90
3816;DHT22;1923;48.154;11.536;2023-02-18T21:28:14;13.30;99.90
3816;DHT22;1923;48.154;11.536;2023-02-18T21:30:43;13.30;99.90
3816;DHT22;1923;48.154;11.536;2023-02-18T21:33:12;13.40;99.90
3816;DHT22;1923;48.154;11.536;2023-02-18T21:35:41;13.50;99.90
3816;DHT22;1923;48.154;11.536;2023-02-18T21:38:09;13.30;99.90
3816;DHT22;1923;48.154;11.536;2023-02-18T21:40:37;13.40;99.90
3816;DHT22;1923;48.154;11.536;2023-02-18T21:43:05;13.20;99.90
3816;DHT22;1923;48.154;11.536;2023-02-18T21:45:33;13.30;99.90
3816;DHT22;1923;48.154;11.536;2023-02-18T21:48:01;13.30;99.90
3816;DHT22;1923;48.154;11.536;2023-02-18T21:50:54;13.30;99.90
3816;DHT22;1923;48.154;11.536;2023-02-18T21:53:26;13.20;99.90
3816;DHT22;1923;48.154;11.536;2023-02-18T21:55:54;13.20;99.90
3816;DHT22;1923;48.154;11.536;2023-02-18T21:58:29;13.20;99.90
3816;DHT22;1923;48.154;11.536;2023-02-18T22:00:57;13.10;99.90
3816;DHT22;1923;48.154;11.536;2023-02-18T22:03:25;13.20;99.90
3816;DHT22;1923;48.154;11.536;2023-02-18T22:05:55;13.20;99.90
3816;DHT22;1923;48.154;11.536;2023-02-18T22:08:23;13.10;99.90
3816;DHT22;1923;48.154;11.536;2023-02-18T22:10:51;13.00;99.90
3816;DHT22;1923;48.154;11.536;2023-02-18T22:13:19;13.20;99.90
3816;DHT22;1923;48.154;11.536;2023-02-18T22:15:53;13.10;99.90
3816;DHT22;1923;48.154;11.536;2023-02-18T22:18:22;13.10;99.90
3816;DHT22;1923;48.154;11.536;2023-02-18T22:20:49;13.10;99.90
3816;DHT22;1923;48.154;11.536;2023-02-18T22:23:19;13.00;99.90
3816;DHT22;1923;48.154;11.536;2023-02-18T22:25:47;13.00;99.90
3816;DHT22;1923;48.154;11.536;2023-02-18T22:28:17;13.10;99.90
3816;DHT22;1923;48.154;11.536;2023-02-18T22:30:45;13.00;99.90
3816;DHT22;1923;48.154;11.536;2023-02-18T22:33:13;13.00;99.90
3816;DHT22;1923;48.154;11.536;2023-02-18T22:35:41;12.90;99.90
3816;DHT22;1923;48.154;11.536;2023-02-18T22:38:09;12.80;99.90
3816;DHT22;1923;48.154;11.536;2023-02-18T22:40:39;12.90;99.90
3816;DHT22;1923;48.154;11.536;2023-02-18T22:43:07;12.90;99.90
3816;DHT22;1923;48.154;11.536;2023-02-18T22:45:35;12.90;99.90
3816;DHT22;1923;48.154;11.536;2023-02-18T22:48:04;12.90;99.90
3816;DHT22;1923;48.154;11.536;2023-02-18T22:50:33;12.80;99.90
3816;DHT22;1923;48.154;11.536;2023-02-18T22:53:01;12.80;99.90
3816;DHT22;1923;48.154;11.536;2023-02-18T22:55:29;12.80;99.90
3816;DHT22;1923;48.154;11.536;2023-02-18T22:57:58;12.80;99.90
3816;DHT22;1923;48.154;11.536;2023-02-18T23:00:26;12.80;99.90
3816;DHT22;1923;48.154;11.536;2023-02-18T23:02:54;12.80;99.90
3816;DHT22;1923;48.154;11.536;2023-02-18T23:05:22;12.80;99.90
3816;DHT22;1923;48.154;11.536;2023-02-18T23:07:50;12.80;99.90
3816;DHT22;1923;48.154;11.536;2023-02-18T23:10:19;12.70;99.90
3816;DHT22;1923;48.154;11.536;2023-02-18T23:12:47;12.80;99.90
3816;DHT22;1923;48.154;11.536;2023-02-18T23:15:16;12.70;99.90
3816;DHT22;1923;48.154;11.536;2023-02-18T23:17:47;12.70;99.90
3816;DHT22;1923;48.154;11.536;2023-02-18T23:20:16;12.60;99.90
3816;DHT22;1923;48.154;11.536;2023-02-18T23:23:04;12.60;99.90
3816;DHT22;1923;48.154;11.536;2023-02-18T23:25:32;12.70;99.90
3816;DHT22;1923;48.154;11.536;2023-02-18T23:28:00;12.60;99.90
3816;DHT22;1923;48.154;11.536;2023-02-18T23:30:30;12.70;99.90
3816;DHT22;1923;48.154;11.536;2023-02-18T23:32:58;12.60;99.90
3816;DHT22;1923;48.154;11.536;2023-02-18T23:35:26;12.70;99.90
3816;DHT22;1923;48.154;11.536;2023-02-18T23:37:54;12.60;99.90
3816;DHT22;1923;48.154;11.536;2023-02-18T23:40:31;12.60;99.90
3816;DHT22;1923;48.154;11.536;2023-02-18T23:43:00;12.50;99.90
3816;DHT22;1923;48.154;11.536;2023-02-18T23:45:30;12.50;99.90
3816;DHT22;1923;48.154;11.536;2023-02-18T23:47:58;12.50;99.90
3816;DHT22;1923;48.154;11.536;2023-02-18T23:50:26;12.50;99.90
3816;DHT22;1923;48.154;11.536;2023-02-18T23:52:54;12.50;99.90
3816;DHT22;1923;48.154;11.536;2023-02-18T23:55:22;12.50;99.90
3816;DHT22;1923;48.154;11.536;2023-02-18T23:57:50;12.50;99.90
